ニジネヴァルトフスク の空港の天気 - METARとTAF

Nizhnevartovsk ( USNN / NJC ) - ロシア ニジネヴァルトフスク
飛行場実況気象(Metar)
観測時間08/18 07:30 YEKT (08/18 02:30 UTC)
風向・風速静穏 0m/s
視程10km以上
天気現象
なし
気温14℃
湿度77%
気圧1022hPa
METARUSNN 180230Z 00000MPS CAVOK 14/10 Q1022 R03/0///65 NOSIG RMK QFE763
過去の天気等 Google飛行場航空写真 Wunderground天気予報

過去48時間のMETAR

飛行場予報(TAF)
発表時間: 8/18 07:00 YEKT (8/18 02:00 UTC)
予報対象時間: 18日8時 YEKT ~ 19日8時 YEKT
風向・風速北北西 3m/s
視程10km以上
全天の4割程度の雲 雲底高度 910m
18日8時 YEKT ~ 18日11時 YEKT に一時的に
風向・風速不定 1m/s
18日17時 YEKT ~ 18日23時 YEKT に一時的に
視程4,000m
天気現象弱いしゅう雨
全天の4割程度の積乱雲 雲底高度 610m
TAF USNN 180200Z 1803/1903 33003MPS 9999 SCT030
TEMPO 1803/1806 VRB01MPS
TEMPO 1812/1818 4000 -SHRA SCT020CB